Impacts METAR Board
IDs:

KSEA - Seattle-Tacoma Intl, WA, US

Updated at: 0300 UTC 23 May 2018
Potential Impact None Slight Moderate High
Time 22/15Z 22/16Z 22/17Z 22/18Z 22/19Z 22/20Z 22/21Z 22/22Z 22/23Z 23/00Z 23/01Z 23/02Z 23/03Z
Temp59 63 66 66 69 71 73 75 78 77 78 76 74
Dewpt49 49 51 52 52 51 52 52 50 50 51 49 49
Altim29.98 29.97 29.96 29.95 29.94 29.92 29.90 29.88 29.87 29.85 29.84 29.83 29.82
VIS10 10 10 10 10 10 10 10 10 10 10 10 10
CIG-- -- -- -- -- -- -- -- -- -- -- -- --
CoverCLRFEWFEWFEWFEWFEWFEWFEWFEWFEWFEWFEWCLR
FltCatVFRVFRVFRVFRVFRVFRVFRVFRVFRVFRVFRVFRVFR
WX--------------------------
WDir103600320290290280290360340360330340
WSpd5 6 3 6 8 9 10 8 9 8 8 8 7
WGst-- -- -- -- -- -- -- -- -- -- -- -- --
Raw hourly METARs
KSEA 221453Z 01005KT 10SM CLR 15/09 A2998 RMK AO2 SLP156 T01500094 52000
KSEA 221553Z 36006KT 10SM FEW250 17/09 A2997 RMK AO2 SLP155 T01720094
KSEA 221653Z VRB03KT 10SM FEW250 19/11 A2996 RMK AO2 SLP151 T01890106
KSEA 221753Z 32006KT 10SM FEW250 19/11 A2995 RMK AO2 SLP146 T01890111 10194 20106 58010
KSEA 221853Z 29008KT 10SM FEW040 21/11 A2994 RMK AO2 SLP143 T02060111
KSEA 221953Z 29009KT 10SM FEW040 22/11 A2992 RMK AO2 SLP136 T02170106
KSEA 222053Z 28010KT 10SM FEW040 23/11 A2990 RMK AO2 SLP130 T02280111 58015
KSEA 222153Z 29008KT 10SM FEW050 24/11 A2988 RMK AO2 SLP124 T02390111
KSEA 222253Z 36009KT 10SM FEW050 26/10 A2987 RMK AO2 SLP117 T02560100
KSEA 222353Z 34008KT 10SM FEW050 25/10 A2985 RMK AO2 SLP112 T02500100 10261 20189 56018
KSEA 230053Z 36008KT 10SM FEW050 26/11 A2984 RMK AO2 SLP109 T02560106
KSEA 230153Z 33008KT 10SM FEW050 24/09 A2983 RMK AO2 SLP106 T02440094
KSEA 230253Z 34007KT 10SM CLR 23/09 A2982 RMK AO2 SLP103 T02330094 56008



Page loaded:  03:12 UTC  |   08:12 PM Pacific  |   09:12 PM Mountain  |   10:12 PM Central  |   11:12 PM Eastern

 

ADVISORIES

FORECASTS

FORECASTS

OBSERVATIONS

USER TOOLS

ABOUT US